Time;durP1;ratioP1;P1;durP2;ratioP2;P2;SDS_P1;SDS_P2;PMS_P1;PMS_P2;Temp;Humidity;BMP_temperature;BMP_pressure;BME280_temperature;BME280_humidity;BME280_pressure;Samples;Min_cycle;Max_cycle;Signal;HPM_P1;HPM_P2
2023/12/28 00:01:22;;;;;;;5.55;2.30;;;15.10;90.50;;;;;;5013248;28;20049;-65
2023/12/28 00:03:48;;;;;;;5.10;2.53;;;15.10;90.50;;;;;;4997459;28;20054;-65
2023/12/28 00:06:14;;;;;;;4.85;2.30;;;15.20;90.60;;;;;;5046479;28;20049;-65
2023/12/28 00:08:40;;;;;;;5.63;2.42;;;15.10;88.90;;;;;;5030321;28;20064;-64
2023/12/28 00:11:06;;;;;;;4.05;2.10;;;;;;;;;;5013735;28;20499;-66
2023/12/28 00:13:32;;;;;;;5.05;2.38;;;15.10;90.60;;;;;;5045541;28;20049;-65
2023/12/28 00:15:58;;;;;;;4.45;2.40;;;15.20;90.70;;;;;;4997245;28;20443;-65
2023/12/28 00:18:23;;;;;;;4.43;2.45;;;15.30;90.70;;;;;;4996468;28;20121;-65
2023/12/28 00:20:50;;;;;;;4.22;2.20;;;;;;;;;;5046755;28;20153;-65
2023/12/28 00:23:16;;;;;;;5.35;2.25;;;15.20;90.30;;;;;;5014493;28;20107;-66
2023/12/28 00:25:42;;;;;;;4.65;2.40;;;;;;;;;;5014855;28;20045;-66
2023/12/28 00:28:08;;;;;;;5.38;2.63;;;15.00;90.70;;;;;;5014141;28;20490;-64
2023/12/28 00:30:33;;;;;;;6.47;2.55;;;15.20;90.80;;;;;;5014524;28;20128;-65
2023/12/28 00:32:59;;;;;;;5.13;2.70;;;15.00;90.70;;;;;;5013376;28;20034;-64
2023/12/28 00:35:25;;;;;;;4.90;2.63;;;15.20;90.80;;;;;;5013068;28;20064;-64
2023/12/28 00:37:51;;;;;;;5.05;2.20;;;;;;;;;;5013433;28;20417;-64
2023/12/28 00:40:17;;;;;;;5.13;2.30;;;15.10;90.80;;;;;;5014157;28;20073;-64
2023/12/28 00:42:42;;;;;;;4.70;2.90;;;15.00;90.80;;;;;;5013921;28;20136;-64
2023/12/28 00:45:09;;;;;;;5.13;2.40;;;15.20;90.90;;;;;;5013444;28;20056;-64
2023/12/28 00:47:35;;;;;;;5.18;2.50;;;15.20;90.90;;;;;;4997080;28;20057;-64
2023/12/28 00:50:01;;;;;;;5.05;2.50;;;;;;;;;;5014210;28;20153;-65
2023/12/28 00:52:27;;;;;;;4.95;2.53;;;;;;;;;;5013565;28;20056;-64
2023/12/28 00:54:53;;;;;;;4.85;2.45;;;15.00;90.90;;;;;;5045872;28;20045;-65
2023/12/28 00:57:19;;;;;;;5.72;2.70;;;15.10;90.90;;;;;;5045887;28;20480;-65
2023/12/28 00:59:45;;;;;;;6.07;2.60;;;15.10;90.90;;;;;;5036240;28;20033;-65
2023/12/28 01:02:10;;;;;;;6.13;2.60;;;15.00;90.90;;;;;;5013717;28;20042;-64
2023/12/28 01:04:36;;;;;;;4.70;2.45;;;15.20;91.00;;;;;;5012756;28;20081;-65
2023/12/28 01:07:05;;;;;;;5.57;2.58;;;;;;;;;;5014289;28;20116;-66
2023/12/28 01:09:32;;;;;;;4.50;2.53;;;15.20;91.00;;;;;;5013921;28;20384;-65
2023/12/28 01:11:58;;;;;;;5.07;2.53;;;15.20;91.00;;;;;;5012330;28;20061;-65
2023/12/28 01:14:24;;;;;;;5.20;2.60;;;15.20;91.00;;;;;;5010847;28;20447;-67
2023/12/28 01:16:50;;;;;;;5.78;2.70;;;15.00;91.00;;;;;;5013825;28;20038;-65
2023/12/28 01:19:16;;;;;;;5.45;2.60;;;15.20;91.10;;;;;;5013702;28;20038;-65
2023/12/28 01:21:42;;;;;;;5.85;2.53;;;;;;;;;;5012083;28;20054;-65
2023/12/28 01:24:08;;;;;;;5.18;2.70;;;15.10;90.30;;;;;;5011632;28;20120;-64
2023/12/28 01:26:34;;;;;;;5.25;2.45;;;15.10;91.10;;;;;;5013606;28;20050;-65
2023/12/28 01:29:02;;;;;;;4.95;2.45;;;15.10;91.10;;;;;;5013483;28;20057;-65
2023/12/28 01:31:29;;;;;;;5.32;2.92;;;;;;;;;;4996163;28;20061;-65
2023/12/28 01:33:55;;;;;;;6.70;2.65;;;;;;;;;;5011223;28;20042;-65
2023/12/28 01:36:21;;;;;;;5.78;2.70;;;15.00;91.10;;;;;;5045383;28;20405;-64
2023/12/28 01:38:48;;;;;;;6.15;2.58;;;;;;;;;;5045416;28;20049;-65
2023/12/28 01:41:15;;;;;;;6.47;2.80;;;;;;;;;;5012325;28;20062;-64
2023/12/28 01:43:41;;;;;;;5.60;2.60;;;;;;;;;;5045093;28;20467;-65
2023/12/28 01:46:08;;;;;;;5.45;2.63;;;15.00;91.20;;;;;;5012820;28;20161;-65
2023/12/28 01:48:34;;;;;;;6.78;2.70;;;15.10;91.30;;;;;;5028462;28;20046;-65
2023/12/28 01:51:00;;;;;;;5.00;2.50;;;15.10;91.30;;;;;;5028779;28;20142;-65
2023/12/28 01:53:26;;;;;;;7.30;2.92;;;15.00;91.30;;;;;;5028350;28;20046;-65
2023/12/28 01:55:51;;;;;;;6.63;2.95;;;15.00;91.30;;;;;;5044591;28;20057;-66
2023/12/28 01:58:18;;;;;;;7.10;2.67;;;;;;;;;;4995405;28;20476;-65
2023/12/28 02:00:45;;;;;;;4.78;2.67;;;;;;;;;;5011966;28;20129;-65
2023/12/28 02:03:11;;;;;;;6.10;2.63;;;;;;;;;;5011732;28;20108;-65
2023/12/28 02:05:36;;;;;;;6.05;2.72;;;15.20;91.40;;;;;;5027703;28;20060;-67
2023/12/28 02:08:02;;;;;;;5.15;2.80;;;15.00;91.40;;;;;;5044411;28;20116;-65
2023/12/28 02:10:28;;;;;;;5.35;2.53;;;15.10;91.50;;;;;;5013362;28;20427;-67
2023/12/28 02:12:55;;;;;;;5.47;2.28;;;;;;;;;;5044666;28;20041;-67
2023/12/28 02:15:21;;;;;;;8.00;3.05;;;;;;;;;;5027618;28;20399;-68
2023/12/28 02:17:55;;;;;;;6.07;2.50;;;14.90;90.00;;;;;;4995466;28;20093;-65
2023/12/28 02:20:21;;;;;;;8.27;3.10;;;15.00;91.50;;;;;;4994080;28;20057;-67
2023/12/28 02:22:47;;;;;;;6.07;2.60;;;;;;;;;;5037562;28;20126;-66
2023/12/28 02:25:13;;;;;;;8.13;3.15;;;15.00;91.50;;;;;;5011400;28;20177;-66
2023/12/28 02:27:48;;;;;;;6.05;2.70;;;15.10;91.60;;;;;;5044278;28;20137;-66
2023/12/28 02:30:17;;;;;;;7.38;2.70;;;;;;;;;;5012641;28;20117;-67
2023/12/28 02:33:00;;;;;;;6.80;2.60;;;15.10;90.00;;;;;;5027844;28;20050;-67
2023/12/28 02:35:29;;;;;;;7.22;2.78;;;15.00;91.10;;;;;;5027024;28;20065;-68
2023/12/28 02:37:58;;;;;;;7.40;3.08;;;14.90;90.30;;;;;;5026716;28;20054;-66
2023/12/28 02:40:24;;;;;;;5.90;2.90;;;15.00;91.60;;;;;;4994799;28;20065;-68
2023/12/28 02:42:49;;;;;;;6.68;2.80;;;14.90;91.60;;;;;;5044450;28;20049;-68
2023/12/28 02:45:16;;;;;;;7.65;3.05;;;;;;;;;;5044509;28;20050;-67
2023/12/28 02:47:44;;;;;;;6.93;2.80;;;;;;;;;;5012429;28;20053;-67
2023/12/28 02:50:10;;;;;;;6.63;2.75;;;;;;;;;;5010958;28;20121;-68
2023/12/28 02:52:36;;;;;;;6.82;2.80;;;;;;;;;;4994755;28;20488;-67
2023/12/28 02:55:02;;;;;;;5.88;2.78;;;;;;;;;;5010915;28;20092;-67
2023/12/28 02:57:28;;;;;;;7.40;3.13;;;14.90;91.70;;;;;;5012136;28;20037;-64
2023/12/28 02:59:54;;;;;;;6.20;2.90;;;15.00;91.70;;;;;;5044282;28;20049;-65
2023/12/28 03:02:20;;;;;;;5.93;2.47;;;14.80;91.70;;;;;;5012394;28;20046;-64
2023/12/28 03:04:45;;;;;;;6.28;2.92;;;15.00;91.70;;;;;;5043863;28;20084;-64
2023/12/28 03:07:12;;;;;;;9.95;3.03;;;;;;;;;;5011718;28;20046;-64
2023/12/28 03:09:38;;;;;;;6.43;2.85;;;15.00;91.70;;;;;;5011190;28;20061;-65
2023/12/28 03:12:04;;;;;;;9.38;2.90;;;15.00;91.70;;;;;;4994757;28;20514;-65
2023/12/28 03:14:31;;;;;;;6.18;2.40;;;;;;;;;;4994819;28;20081;-65
2023/12/28 03:16:56;;;;;;;6.35;2.55;;;14.80;91.70;;;;;;5011251;28;20455;-66
2023/12/28 03:19:22;;;;;;;7.28;3.47;;;;;;;;;;5013141;28;20053;-64
2023/12/28 03:21:48;;;;;;;7.65;3.00;;;14.80;91.70;;;;;;5047452;28;20058;-65
2023/12/28 03:24:14;;;;;;;6.88;2.50;;;14.90;91.80;;;;;;5047753;28;20137;-64
2023/12/28 03:26:40;;;;;;;6.75;2.85;;;;;;;;;;5031099;28;20050;-64
2023/12/28 03:29:07;;;;;;;7.82;3.05;;;14.80;91.70;;;;;;5045078;28;20053;-64
2023/12/28 03:31:33;;;;;;;7.40;3.05;;;;;;;;;;5014249;28;20088;-65
2023/12/28 03:33:59;;;;;;;9.45;2.83;;;14.80;91.80;;;;;;5047729;28;20054;-64
2023/12/28 03:36:25;;;;;;;7.68;2.53;;;14.90;91.80;;;;;;5046762;28;20041;-64
2023/12/28 03:38:51;;;;;;;10.50;3.40;;;14.90;91.80;;;;;;4997869;28;20049;-65
2023/12/28 03:41:20;;;;;;;6.43;2.70;;;14.80;91.80;;;;;;5047689;28;20066;-65
2023/12/28 03:43:46;;;;;;;9.13;2.78;;;14.80;91.90;;;;;;5030737;28;20133;-64
2023/12/28 03:46:12;;;;;;;7.00;2.75;;;14.60;91.80;;;;;;5029843;28;20384;-64
2023/12/28 03:48:38;;;;;;;8.02;2.63;;;;;;;;;;4997224;28;20819;-65
2023/12/28 03:51:04;;;;;;;7.68;2.75;;;14.80;91.90;;;;;;5015507;28;20046;-65
2023/12/28 03:53:33;;;;;;;7.47;2.58;;;14.70;91.90;;;;;;5015760;28;20394;-64
2023/12/28 03:55:59;;;;;;;8.80;2.60;;;14.90;91.30;;;;;;5015303;28;20053;-65
2023/12/28 03:58:25;;;;;;;7.60;3.05;;;14.90;92.00;;;;;;5015611;28;20080;-65
2023/12/28 04:00:51;;;;;;;8.57;2.90;;;;;;;;;;5013012;28;20037;-65
2023/12/28 04:03:17;;;;;;;7.13;2.78;;;;;;;;;;5015046;28;20048;-66
2023/12/28 04:05:43;;;;;;;7.35;2.83;;;;;;;;;;5015211;28;20052;-64
2023/12/28 04:08:10;;;;;;;8.70;2.92;;;;;;;;;;5030228;28;20061;-65
2023/12/28 04:10:37;;;;;;;7.10;2.67;;;15.00;92.10;;;;;;5009139;28;20077;-66
2023/12/28 04:13:03;;;;;;;5.85;2.50;;;;;;;;;;5013861;28;20396;-65
2023/12/28 04:15:30;;;;;;;7.28;2.88;;;;;;;;;;5033677;28;20072;-65
2023/12/28 04:17:56;;;;;;;5.47;2.40;;;14.80;91.90;;;;;;5046984;28;20068;-65
2023/12/28 04:20:21;;;;;;;6.70;2.67;;;14.80;92.00;;;;;;5029297;28;20492;-64
2023/12/28 04:22:47;;;;;;;7.05;2.33;;;;;;;;;;5013313;28;20061;-65
2023/12/28 04:25:13;;;;;;;7.28;2.60;;;14.80;92.10;;;;;;5013363;28;20064;-64
2023/12/28 04:27:39;;;;;;;7.18;3.00;;;;;;;;;;4997275;28;20411;-65
2023/12/28 04:30:06;;;;;;;6.20;2.28;;;14.80;91.00;;;;;;5012782;28;20058;-65
2023/12/28 04:32:32;;;;;;;7.63;2.83;;;14.90;92.10;;;;;;5046367;28;20054;-66
2023/12/28 04:34:58;;;;;;;7.30;2.70;;;14.70;92.10;;;;;;5029894;28;20046;-64
2023/12/28 04:37:26;;;;;;;6.82;2.45;;;14.80;92.10;;;;;;5046348;28;20049;-65
2023/12/28 04:39:53;;;;;;;6.93;2.50;;;14.80;92.20;;;;;;5029368;28;20042;-64
2023/12/28 04:42:19;;;;;;;8.90;2.95;;;14.90;92.20;;;;;;5011122;28;20582;-65
2023/12/28 04:44:44;;;;;;;8.90;2.70;;;14.90;92.10;;;;;;5029682;28;20403;-67
2023/12/28 04:47:10;;;;;;;6.80;2.83;;;14.80;92.10;;;;;;5012931;28;20050;-65
2023/12/28 04:49:36;;;;;;;6.32;2.70;;;;;;;;;;5013083;28;20133;-64
2023/12/28 04:52:02;;;;;;;7.53;2.50;;;14.90;92.10;;;;;;5012648;28;20407;-64
2023/12/28 04:54:28;;;;;;;6.97;2.35;;;14.80;92.20;;;;;;5012859;28;20054;-65
2023/12/28 04:56:54;;;;;;;9.13;2.97;;;14.90;92.20;;;;;;5014176;28;20104;-66
2023/12/28 04:59:20;;;;;;;8.52;2.85;;;14.80;92.20;;;;;;5014332;28;20080;-65
2023/12/28 05:01:46;;;;;;;6.93;2.33;;;;;;;;;;5014022;28;20042;-65
2023/12/28 05:04:12;;;;;;;7.22;2.80;;;;;;;;;;5012587;28;20404;-65
2023/12/28 05:06:38;;;;;;;9.02;2.70;;;14.90;92.20;;;;;;5013789;28;20455;-67
2023/12/28 05:09:04;;;;;;;11.57;2.95;;;14.90;92.20;;;;;;5045853;28;20050;-66
2023/12/28 05:11:30;;;;;;;8.10;2.70;;;14.70;92.10;;;;;;5044917;28;20121;-67
2023/12/28 05:13:56;;;;;;;10.75;3.20;;;14.80;92.20;;;;;;5045569;28;20194;-66
2023/12/28 05:16:22;;;;;;;5.65;2.38;;;;;;;;;;5045368;28;20061;-68
2023/12/28 05:18:48;;;;;;;7.45;2.40;;;;;;;;;;5045918;28;20053;-68
2023/12/28 05:21:14;;;;;;;7.47;2.63;;;14.80;92.30;;;;;;5045281;28;20054;-68
2023/12/28 05:23:41;;;;;;;7.45;2.70;;;14.80;92.30;;;;;;5043140;28;20053;-68
2023/12/28 05:26:06;;;;;;;7.82;2.38;;;14.80;92.30;;;;;;5028988;28;20048;-65
2023/12/28 05:28:33;;;;;;;6.90;2.50;;;;;;;;;;5013745;28;20504;-64
2023/12/28 05:31:01;;;;;;;7.43;2.70;;;14.80;92.30;;;;;;5013209;28;20550;-68
2023/12/28 05:33:27;;;;;;;8.65;2.85;;;;;;;;;;5044858;28;20081;-65
2023/12/28 05:35:53;;;;;;;7.78;2.55;;;15.00;92.00;;;;;;5013567;28;20057;-65
2023/12/28 05:38:19;;;;;;;8.20;2.50;;;14.80;92.40;;;;;;5012500;28;20050;-65
2023/12/28 05:40:45;;;;;;;9.57;3.00;;;;;;;;;;5011701;28;20084;-65
2023/12/28 05:43:11;;;;;;;8.75;2.95;;;14.90;92.30;;;;;;4992108;28;20086;-65
2023/12/28 05:45:37;;;;;;;7.90;2.65;;;14.90;92.40;;;;;;5044607;28;20046;-64
2023/12/28 05:48:03;;;;;;;9.18;2.78;;;14.80;92.40;;;;;;5013360;28;20100;-64
2023/12/28 05:50:29;;;;;;;8.13;2.92;;;14.80;91.80;;;;;;5013469;28;20458;-66
2023/12/28 05:52:55;;;;;;;10.43;3.15;;;14.90;92.40;;;;;;5043724;28;20054;-64
2023/12/28 05:55:21;;;;;;;8.77;3.13;;;;;;;;;;5010999;28;20061;-64
2023/12/28 05:57:50;;;;;;;8.43;2.50;;;14.90;92.40;;;;;;5012446;28;20084;-64
2023/12/28 06:00:16;;;;;;;9.20;3.20;;;14.90;92.50;;;;;;5011982;28;20404;-64
2023/12/28 06:02:41;;;;;;;8.52;3.17;;;14.90;92.50;;;;;;4995524;28;20041;-64
2023/12/28 06:05:07;;;;;;;10.02;2.95;;;14.80;92.40;;;;;;5013176;28;20574;-64
2023/12/28 06:07:34;;;;;;;7.07;2.83;;;14.90;92.50;;;;;;5011252;28;20077;-64
2023/12/28 06:09:59;;;;;;;12.73;3.30;;;14.80;91.30;;;;;;4995537;28;20058;-64
2023/12/28 06:12:25;;;;;;;7.35;2.83;;;14.90;92.50;;;;;;5012027;28;20046;-64
2023/12/28 06:14:51;;;;;;;8.55;2.75;;;14.90;92.60;;;;;;5011596;28;20088;-64
2023/12/28 06:17:18;;;;;;;10.55;3.10;;;;;;;;;;5011358;28;20077;-65
2023/12/28 06:19:45;;;;;;;13.88;3.25;;;;;;;;;;5009273;28;20041;-64
2023/12/28 06:22:11;;;;;;;8.85;2.53;;;14.70;92.50;;;;;;5010879;28;20057;-64
2023/12/28 06:24:40;;;;;;;8.93;2.75;;;14.80;92.50;;;;;;5011508;28;20057;-66
2023/12/28 06:27:06;;;;;;;12.10;3.00;;;14.90;92.60;;;;;;5028158;28;20046;-67
2023/12/28 06:29:31;;;;;;;9.02;3.40;;;15.00;92.60;;;;;;5027515;28;20141;-65
2023/12/28 06:31:57;;;;;;;8.60;3.00;;;15.00;92.60;;;;;;5011203;28;20077;-68
2023/12/28 06:34:23;;;;;;;7.35;2.70;;;14.90;92.60;;;;;;5011377;28;20041;-65
2023/12/28 06:36:49;;;;;;;9.10;2.78;;;;;;;;;;5028118;28;20053;-67
2023/12/28 06:39:16;;;;;;;9.40;2.97;;;;;;;;;;5026091;28;20133;-65
2023/12/28 06:41:41;;;;;;;9.70;2.80;;;15.00;92.70;;;;;;5012480;28;20045;-64
2023/12/28 06:44:08;;;;;;;10.40;3.00;;;;;;;;;;5043720;28;20041;-64
2023/12/28 06:46:34;;;;;;;10.52;3.10;;;;;;;;;;5010438;28;20054;-64
2023/12/28 06:49:00;;;;;;;8.90;2.80;;;14.90;92.60;;;;;;5044250;28;20056;-64
2023/12/28 06:51:26;;;;;;;10.30;3.15;;;;;;;;;;5027610;28;20046;-64
2023/12/28 06:53:52;;;;;;;10.50;3.40;;;;;;;;;;5014491;28;20049;-66
2023/12/28 06:56:18;;;;;;;13.30;3.10;;;;;;;;;;5016265;28;20046;-66
2023/12/28 06:58:44;;;;;;;11.70;3.15;;;14.90;92.70;;;;;;5013158;28;20046;-64
2023/12/28 07:01:11;;;;;;;10.32;3.20;;;14.80;92.80;;;;;;5048104;28;20049;-65
2023/12/28 07:03:37;;;;;;;11.73;3.28;;;;;;;;;;5014467;28;20100;-65
2023/12/28 07:06:03;;;;;;;11.32;3.50;;;15.00;92.80;;;;;;5016309;28;20050;-65
2023/12/28 07:08:29;;;;;;;13.98;3.55;;;;;;;;;;5016393;28;20034;-65
2023/12/28 07:10:56;;;;;;;11.65;3.83;;;;;;;;;;5015085;28;20081;-65
2023/12/28 07:13:22;;;;;;;8.48;3.15;;;;;;;;;;5013941;28;20049;-65
2023/12/28 07:15:47;;;;;;;9.35;3.42;;;14.90;92.70;;;;;;5041756;28;20133;-66
2023/12/28 07:18:13;;;;;;;12.77;3.70;;;14.90;92.80;;;;;;4996487;28;20112;-65
2023/12/28 07:20:39;;;;;;;10.85;3.50;;;14.80;92.80;;;;;;4995137;28;20053;-65
2023/12/28 07:23:06;;;;;;;11.95;3.50;;;;;;;;;;5006401;28;20058;-65
2023/12/28 07:25:32;;;;;;;10.98;3.45;;;14.80;92.90;;;;;;5014036;28;20523;-65
2023/12/28 07:27:59;;;;;;;12.88;3.70;;;14.80;92.90;;;;;;4996513;28;20035;-64
2023/12/28 07:30:24;;;;;;;11.55;3.80;;;14.60;92.90;;;;;;4996632;28;20507;-65
2023/12/28 07:32:50;;;;;;;10.82;3.28;;;;;;;;;;5017176;28;20038;-65
2023/12/28 07:35:17;;;;;;;13.13;3.92;;;14.70;92.90;;;;;;5047115;28;20395;-65
2023/12/28 07:37:44;;;;;;;11.38;3.10;;;;;;;;;;5047485;28;20084;-64
2023/12/28 07:40:11;;;;;;;12.40;3.45;;;14.70;92.90;;;;;;5047389;28;20050;-65
2023/12/28 07:42:37;;;;;;;12.38;3.80;;;14.70;92.90;;;;;;5013780;28;20486;-65
2023/12/28 07:45:04;;;;;;;9.93;3.35;;;14.80;91.40;;;;;;5030144;28;20081;-65
2023/12/28 07:47:30;;;;;;;10.52;3.42;;;14.80;92.90;;;;;;5015230;28;20068;-65
2023/12/28 07:49:55;;;;;;;11.95;3.60;;;14.70;92.20;;;;;;5015413;28;20049;-65
2023/12/28 07:52:21;;;;;;;12.20;3.50;;;14.80;93.00;;;;;;4997858;28;20136;-66
2023/12/28 07:54:47;;;;;;;11.55;3.42;;;14.80;93.00;;;;;;4996875;28;20176;-64
2023/12/28 07:57:13;;;;;;;11.07;3.53;;;14.90;93.00;;;;;;4997782;28;20519;-65
2023/12/28 07:59:39;;;;;;;10.02;3.95;;;;;;;;;;5015463;28;20411;-65
2023/12/28 08:02:05;;;;;;;11.63;3.53;;;14.80;91.60;;;;;;5013986;28;20054;-64
2023/12/28 08:04:31;;;;;;;14.38;3.50;;;14.90;93.00;;;;;;4995475;28;20049;-68
2023/12/28 08:06:58;;;;;;;14.55;3.70;;;;;;;;;;5014150;28;20120;-65
2023/12/28 08:09:24;;;;;;;13.80;3.58;;;14.80;93.00;;;;;;5015150;28;20054;-65
2023/12/28 08:11:50;;;;;;;11.48;3.45;;;;;;;;;;5013796;28;20052;-65
2023/12/28 08:14:16;;;;;;;12.95;3.50;;;14.90;93.00;;;;;;5014008;28;20042;-69
2023/12/28 08:16:41;;;;;;;13.55;3.47;;;14.80;93.00;;;;;;5013647;28;20054;-65
2023/12/28 08:19:07;;;;;;;11.43;3.75;;;14.70;93.00;;;;;;5030289;28;20085;-65
2023/12/28 08:21:33;;;;;;;14.73;3.40;;;14.80;93.00;;;;;;5013480;28;20050;-66
2023/12/28 08:23:59;;;;;;;10.75;3.80;;;14.70;93.00;;;;;;5013201;28;20046;-66
2023/12/28 08:26:26;;;;;;;12.80;3.65;;;;;;;;;;5012949;28;20064;-65
2023/12/28 08:28:52;;;;;;;12.98;3.90;;;14.70;93.00;;;;;;4995606;28;20046;-68
2023/12/28 08:31:18;;;;;;;12.77;3.67;;;14.80;93.00;;;;;;5030040;28;20061;-66
2023/12/28 08:33:43;;;;;;;12.10;3.60;;;14.80;93.00;;;;;;5012941;28;20544;-64
2023/12/28 08:36:11;;;;;;;12.15;3.63;;;14.90;93.00;;;;;;5013199;28;20046;-65
2023/12/28 08:38:37;;;;;;;14.25;4.25;;;14.80;93.00;;;;;;5013295;28;20085;-68
2023/12/28 08:41:08;;;;;;;11.05;3.40;;;14.90;93.10;;;;;;5013582;28;20080;-65
2023/12/28 08:43:34;;;;;;;12.88;3.90;;;;;;;;;;5013175;28;20058;-69
2023/12/28 08:46:00;;;;;;;13.05;3.55;;;;;;;;;;5012411;28;20492;-69
2023/12/28 08:48:26;;;;;;;13.65;3.63;;;;;;;;;;4998133;28;20061;-64
2023/12/28 08:50:52;;;;;;;13.35;4.00;;;;;;;;;;5016043;28;20041;-64
2023/12/28 08:53:18;;;;;;;13.30;4.18;;;14.80;93.00;;;;;;5045451;28;20111;-67
2023/12/28 08:55:44;;;;;;;12.32;3.58;;;14.90;93.10;;;;;;5046417;28;20073;-66
2023/12/28 08:58:10;;;;;;;13.45;4.18;;;15.00;93.10;;;;;;5027753;28;20037;-65
2023/12/28 09:00:36;;;;;;;11.68;4.03;;;;;;;;;;5046720;28;20049;-66
2023/12/28 09:03:03;;;;;;;16.70;4.50;;;14.90;93.00;;;;;;5015971;28;20061;-70
2023/12/28 09:05:29;;;;;;;17.58;4.32;;;;;;;;;;5045994;28;20049;-67
2023/12/28 09:07:55;;;;;;;19.08;5.47;;;;;;;;;;5011432;28;20081;-65
2023/12/28 09:10:21;;;;;;;18.38;5.07;;;;;;;;;;5013504;28;20472;-65
2023/12/28 09:12:48;;;;;;;26.10;5.15;;;15.10;92.50;;;;;;5012246;28;20495;-65
2023/12/28 09:15:14;;;;;;;19.13;5.10;;;15.00;93.10;;;;;;5029370;28;20046;-65
2023/12/28 09:17:40;;;;;;;20.60;4.70;;;;;;;;;;5012881;28;20137;-64
2023/12/28 09:20:06;;;;;;;20.73;4.75;;;15.00;93.10;;;;;;5012465;28;20054;-65
2023/12/28 09:22:33;;;;;;;18.67;4.50;;;;;;;;;;5013197;28;20113;-66
2023/12/28 09:24:59;;;;;;;18.60;4.55;;;14.80;93.10;;;;;;5012987;28;20052;-64
2023/12/28 09:27:25;;;;;;;16.10;4.82;;;14.90;93.10;;;;;;5013969;28;20134;-64
2023/12/28 09:29:51;;;;;;;14.07;4.28;;;14.80;93.00;;;;;;5045253;28;20057;-66
2023/12/28 09:32:17;;;;;;;17.85;5.07;;;15.10;93.10;;;;;;5012401;28;20046;-65
2023/12/28 09:34:43;;;;;;;20.23;4.65;;;15.00;91.40;;;;;;5013405;28;20462;-66
2023/12/28 09:37:09;;;;;;;17.95;4.72;;;;;;;;;;5013576;28;20041;-65
2023/12/28 09:39:35;;;;;;;15.93;4.50;;;14.90;93.00;;;;;;5012242;28;20064;-64
2023/12/28 09:42:16;;;;;;;13.38;4.90;;;15.00;92.00;;;;;;5013643;28;20042;-64
2023/12/28 09:44:43;;;;;;;16.38;4.18;;;15.10;93.00;;;;;;5027508;28;20049;-64
2023/12/28 09:47:12;;;;;;;12.40;3.78;;;15.00;92.80;;;;;;5011684;28;20107;-65
2023/12/28 09:49:38;;;;;;;13.40;4.15;;;;;;;;;;5044469;28;20041;-64
2023/12/28 09:52:05;;;;;;;17.90;4.53;;;15.00;92.60;;;;;;5018506;28;20137;-65
2023/12/28 09:54:31;;;;;;;14.68;4.00;;;;;;;;;;5020195;28;20045;-70
2023/12/28 09:56:57;;;;;;;15.63;4.90;;;15.20;93.10;;;;;;5048854;28;20045;-70
2023/12/28 09:59:24;;;;;;;15.65;4.35;;;15.00;93.00;;;;;;5021608;28;20033;-69
2023/12/28 10:01:50;;;;;;;14.38;4.10;;;14.90;92.40;;;;;;5002020;28;20455;-70
2023/12/28 10:04:16;;;;;;;11.90;3.75;;;15.10;93.00;;;;;;5024653;28;20103;-70
2023/12/28 10:06:42;;;;;;;11.48;3.80;;;15.10;93.00;;;;;;5015347;28;20511;-65
2023/12/28 10:09:08;;;;;;;20.45;4.95;;;;;;;;;;5042340;28;20129;-64
2023/12/28 10:11:35;;;;;;;21.58;4.25;;;;;;;;;;5040994;28;20833;-65
2023/12/28 10:14:02;;;;;;;19.80;4.70;;;15.10;93.10;;;;;;5011639;28;20058;-65
2023/12/28 10:16:28;;;;;;;20.15;4.43;;;15.30;93.10;;;;;;5024511;28;20049;-65
2023/12/28 10:18:55;;;;;;;19.00;4.80;;;;;;;;;;5020225;28;20042;-64
2023/12/28 10:21:23;;;;;;;20.33;4.18;;;15.20;92.00;;;;;;4990378;28;20071;-68
2023/12/28 10:23:49;;;;;;;22.05;4.45;;;15.30;93.00;;;;;;5016847;28;20124;-65
2023/12/28 10:26:18;;;;;;;63.22;8.27;;;15.10;91.90;;;;;;5002660;28;20050;-63
2023/12/28 10:28:44;;;;;;;110.20;10.98;;;;;;;;;;5016576;28;20053;-64
2023/12/28 10:31:11;;;;;;;130.30;12.52;;;;;;;;;;4996254;28;20046;-63
2023/12/28 10:33:38;;;;;;;116.07;12.07;;;15.40;92.90;;;;;;5002227;28;20142;-65
2023/12/28 10:36:08;;;;;;;228.00;21.90;;;;;;;;;;5026353;28;20567;-64
2023/12/28 10:38:37;;;;;;;470.95;42.30;;;;;;;;;;5002691;28;20125;-65
2023/12/28 10:41:12;;;;;;;332.27;25.58;;;15.50;91.80;;;;;;5001916;28;20045;-64
2023/12/28 10:44:13;;;;;;;292.52;25.90;;;15.50;91.20;;;;;;5006465;28;20061;-68
2023/12/28 10:46:43;;;;;;;206.63;19.65;;;15.50;92.80;;;;;;4986199;28;20061;-64
2023/12/28 10:49:13;;;;;;;198.32;20.48;;;15.50;92.70;;;;;;5001290;28;20049;-65
2023/12/28 10:51:43;;;;;;;138.32;16.17;;;;;;;;;;5007190;28;20048;-63
2023/12/28 10:54:20;;;;;;;130.30;14.13;;;15.50;91.00;;;;;;5002737;28;20057;-64
2023/12/28 10:56:50;;;;;;;98.45;13.93;;;;;;;;;;4991729;28;20389;-64
2023/12/28 10:59:16;;;;;;;114.30;13.82;;;;;;;;;;5018895;28;20117;-64
2023/12/28 11:01:42;;;;;;;80.97;11.68;;;15.50;92.40;;;;;;5034433;28;20046;-64
2023/12/28 11:04:11;;;;;;;106.35;13.85;;;;;;;;;;5041703;28;20052;-63
2023/12/28 11:06:38;;;;;;;86.30;10.75;;;15.70;91.10;;;;;;5033295;28;20070;-64
2023/12/28 11:09:06;;;;;;;75.05;10.15;;;;;;;;;;4973290;28;20059;-63
2023/12/28 11:11:32;;;;;;;58.58;8.75;;;;;;;;;;4969477;28;20081;-62
2023/12/28 11:14:00;;;;;;;59.13;9.80;;;15.60;92.50;;;;;;5031959;28;20046;-63
2023/12/28 11:16:26;;;;;;;63.10;9.88;;;;;;;;;;5021885;28;20392;-63
2023/12/28 11:18:52;;;;;;;73.97;10.85;;;15.70;92.50;;;;;;5001761;28;20112;-63
2023/12/28 11:21:18;;;;;;;74.43;9.20;;;;;;;;;;5006833;28;20049;-64
2023/12/28 11:23:44;;;;;;;51.53;8.38;;;15.50;92.50;;;;;;5018057;28;20061;-63
2023/12/28 11:26:20;;;;;;;61.03;9.10;;;;;;;;;;5021218;28;20046;-63
2023/12/28 11:28:46;;;;;;;69.53;9.27;;;15.70;92.60;;;;;;5024619;28;20041;-63
2023/12/28 11:31:15;;;;;;;77.65;10.32;;;15.50;92.60;;;;;;5027330;28;20502;-63
2023/12/28 11:33:49;;;;;;;117.72;13.68;;;;;;;;;;5027218;28;20046;-63
2023/12/28 11:36:35;;;;;;;165.35;18.42;;;;;;;;;;5024549;28;20104;-63
2023/12/28 11:39:03;;;;;;;235.60;24.38;;;15.70;92.60;;;;;;5038040;28;20049;-64
2023/12/28 11:41:34;;;;;;;189.98;20.00;;;15.70;91.40;;;;;;5026230;28;20403;-65
2023/12/28 11:44:06;;;;;;;183.35;20.65;;;15.60;90.80;;;;;;5019917;28;20495;-64
2023/12/28 11:46:39;;;;;;;185.75;18.77;;;15.80;91.40;;;;;;5006282;28;20037;-64
2023/12/28 11:49:08;;;;;;;152.93;17.73;;;15.60;92.50;;;;;;5004689;28;20045;-64
2023/12/28 11:51:38;;;;;;;116.07;15.02;;;15.50;92.40;;;;;;4991076;28;20124;-64
2023/12/28 11:54:05;;;;;;;108.00;13.07;;;;;;;;;;5004628;28;20171;-67
2023/12/28 11:56:32;;;;;;;111.85;14.35;;;15.60;92.50;;;;;;5004086;28;20033;-67
2023/12/28 11:58:58;;;;;;;78.55;11.55;;;;;;;;;;5004242;28;20157;-64
2023/12/28 12:01:24;;;;;;;60.88;9.45;;;;;;;;;;5009759;28;20065;-64
2023/12/28 12:03:50;;;;;;;74.65;10.63;;;15.60;92.60;;;;;;5047084;28;20085;-64
2023/12/28 12:06:16;;;;;;;56.60;8.65;;;15.70;92.60;;;;;;5012942;28;20496;-64
2023/12/28 12:08:49;;;;;;;51.45;8.60;;;15.60;90.90;;;;;;5039250;28;20062;-67
2023/12/28 12:11:16;;;;;;;40.05;7.68;;;15.70;92.20;;;;;;5003937;28;20054;-64
2023/12/28 12:13:42;;;;;;;34.15;7.20;;;15.50;92.60;;;;;;5038299;28;20399;-64
2023/12/28 12:16:08;;;;;;;34.80;6.43;;;15.50;92.60;;;;;;5035780;28;20044;-64
2023/12/28 12:18:34;;;;;;;37.88;6.82;;;15.60;92.70;;;;;;5037835;28;20404;-64
2023/12/28 12:20:59;;;;;;;36.05;6.15;;;15.60;92.70;;;;;;5019727;28;20048;-64
2023/12/28 12:23:26;;;;;;;29.30;6.00;;;;;;;;;;5003820;28;20057;-64
2023/12/28 12:25:52;;;;;;;24.65;6.30;;;15.60;92.70;;;;;;5009322;28;20140;-64
2023/12/28 12:28:18;;;;;;;27.45;5.65;;;15.50;92.70;;;;;;5044939;28;20507;-64
2023/12/28 12:30:54;;;;;;;20.58;5.25;;;15.50;91.10;;;;;;5037630;28;20129;-64
2023/12/28 12:33:21;;;;;;;29.98;5.65;;;;;;;;;;5019149;28;20049;-64
2023/12/28 12:35:47;;;;;;;21.60;5.40;;;;;;;;;;5024695;28;20068;-64
2023/12/28 12:38:13;;;;;;;22.25;5.18;;;;;;;;;;4987495;28;20049;-64
2023/12/28 12:40:39;;;;;;;25.75;5.40;;;15.40;92.70;;;;;;5019550;28;20065;-64
2023/12/28 12:43:08;;;;;;;19.70;4.90;;;;;;;;;;5020061;28;20053;-65
2023/12/28 12:45:35;;;;;;;17.50;4.32;;;15.40;92.80;;;;;;5035007;28;20094;-64
2023/12/28 12:48:03;;;;;;;13.68;4.10;;;;;;;;;;5013441;28;20048;-65
2023/12/28 12:50:29;;;;;;;17.25;4.35;;;15.40;92.60;;;;;;5009920;28;20068;-64
2023/12/28 12:52:56;;;;;;;13.43;4.03;;;;;;;;;;5035310;28;20045;-63
2023/12/28 12:55:23;;;;;;;30.48;6.35;;;15.30;92.70;;;;;;5002524;28;20049;-63
2023/12/28 12:57:50;;;;;;;151.75;16.17;;;15.40;92.80;;;;;;5018156;28;20098;-63
2023/12/28 13:00:16;;;;;;;527.58;50.92;;;;;;;;;;4986068;28;20046;-63
2023/12/28 13:02:42;;;;;;;240.88;24.77;;;15.50;92.00;;;;;;5006064;28;20176;-64
2023/12/28 13:05:08;;;;;;;268.63;23.45;;;15.40;92.80;;;;;;5002536;28;20103;-63
2023/12/28 13:07:34;;;;;;;209.90;20.85;;;;;;;;;;5035665;28;20396;-63
2023/12/28 13:10:00;;;;;;;200.48;20.42;;;15.40;92.90;;;;;;5003617;28;20049;-64
2023/12/28 13:12:26;;;;;;;145.40;15.25;;;;;;;;;;5002662;28;20054;-63